sensor_id;sensor_type;location;lat;lon;timestamp;P1;durP1;ratioP1;P2;durP2;ratioP2
56429;SDS011;42332;52.136;20.666;2023-06-22T00:00:59;32.30;;;22.40;;
56429;SDS011;42332;52.136;20.666;2023-06-22T00:03:25;32.25;;;22.73;;
56429;SDS011;42332;52.136;20.666;2023-06-22T00:05:51;32.35;;;21.70;;
56429;SDS011;42332;52.136;20.666;2023-06-22T00:08:17;34.13;;;23.20;;
56429;SDS011;42332;52.136;20.666;2023-06-22T00:10:43;38.40;;;23.48;;
56429;SDS011;42332;52.136;20.666;2023-06-22T00:13:09;43.97;;;24.95;;
56429;SDS011;42332;52.136;20.666;2023-06-22T00:15:35;38.58;;;23.70;;
56429;SDS011;42332;52.136;20.666;2023-06-22T00:18:01;36.95;;;23.83;;
56429;SDS011;42332;52.136;20.666;2023-06-22T00:20:27;38.10;;;24.95;;
56429;SDS011;42332;52.136;20.666;2023-06-22T00:22:56;37.50;;;23.13;;
56429;SDS011;42332;52.136;20.666;2023-06-22T00:25:22;36.53;;;24.00;;
56429;SDS011;42332;52.136;20.666;2023-06-22T00:27:47;39.25;;;24.42;;
56429;SDS011;42332;52.136;20.666;2023-06-22T00:30:13;35.63;;;23.52;;
56429;SDS011;42332;52.136;20.666;2023-06-22T00:32:40;35.85;;;24.25;;
56429;SDS011;42332;52.136;20.666;2023-06-22T00:35:05;38.85;;;25.40;;
56429;SDS011;42332;52.136;20.666;2023-06-22T00:37:30;40.13;;;26.90;;
56429;SDS011;42332;52.136;20.666;2023-06-22T00:39:56;43.97;;;26.27;;
56429;SDS011;42332;52.136;20.666;2023-06-22T00:42:21;38.80;;;26.08;;
56429;SDS011;42332;52.136;20.666;2023-06-22T00:44:47;41.28;;;27.25;;
56429;SDS011;42332;52.136;20.666;2023-06-22T00:47:13;41.92;;;27.40;;
56429;SDS011;42332;52.136;20.666;2023-06-22T00:49:40;40.63;;;26.15;;
56429;SDS011;42332;52.136;20.666;2023-06-22T00:52:06;37.05;;;25.25;;
56429;SDS011;42332;52.136;20.666;2023-06-22T00:54:40;40.53;;;25.40;;
56429;SDS011;42332;52.136;20.666;2023-06-22T00:57:10;38.33;;;26.23;;
56429;SDS011;42332;52.136;20.666;2023-06-22T00:59:36;39.80;;;26.60;;
56429;SDS011;42332;52.136;20.666;2023-06-22T01:02:02;48.75;;;27.33;;
56429;SDS011;42332;52.136;20.666;2023-06-22T01:04:34;38.22;;;27.08;;
56429;SDS011;42332;52.136;20.666;2023-06-22T01:09:59;37.92;;;25.65;;
56429;SDS011;42332;52.136;20.666;2023-06-22T01:12:42;40.95;;;26.40;;
56429;SDS011;42332;52.136;20.666;2023-06-22T01:15:14;40.38;;;24.83;;
56429;SDS011;42332;52.136;20.666;2023-06-22T01:17:52;41.33;;;25.85;;
56429;SDS011;42332;52.136;20.666;2023-06-22T01:20:18;37.75;;;25.42;;
56429;SDS011;42332;52.136;20.666;2023-06-22T01:23:09;38.60;;;26.45;;
56429;SDS011;42332;52.136;20.666;2023-06-22T01:25:50;43.13;;;27.42;;
56429;SDS011;42332;52.136;20.666;2023-06-22T01:28:45;43.55;;;27.23;;
56429;SDS011;42332;52.136;20.666;2023-06-22T01:31:13;41.90;;;28.65;;
56429;SDS011;42332;52.136;20.666;2023-06-22T01:33:42;41.88;;;24.70;;
56429;SDS011;42332;52.136;20.666;2023-06-22T01:36:09;43.50;;;29.65;;
56429;SDS011;42332;52.136;20.666;2023-06-22T01:38:34;47.80;;;28.80;;
56429;SDS011;42332;52.136;20.666;2023-06-22T01:41:01;50.15;;;31.77;;
56429;SDS011;42332;52.136;20.666;2023-06-22T01:43:27;50.30;;;30.13;;
56429;SDS011;42332;52.136;20.666;2023-06-22T01:45:54;52.00;;;31.27;;
56429;SDS011;42332;52.136;20.666;2023-06-22T01:48:20;45.65;;;29.80;;
56429;SDS011;42332;52.136;20.666;2023-06-22T01:50:46;47.85;;;30.73;;
56429;SDS011;42332;52.136;20.666;2023-06-22T01:53:12;50.15;;;31.42;;
56429;SDS011;42332;52.136;20.666;2023-06-22T01:55:37;53.72;;;31.98;;
56429;SDS011;42332;52.136;20.666;2023-06-22T01:58:02;54.92;;;30.75;;
56429;SDS011;42332;52.136;20.666;2023-06-22T02:00:28;52.67;;;32.80;;
56429;SDS011;42332;52.136;20.666;2023-06-22T02:02:59;54.10;;;33.83;;
56429;SDS011;42332;52.136;20.666;2023-06-22T02:05:26;55.03;;;34.83;;
56429;SDS011;42332;52.136;20.666;2023-06-22T02:08:16;47.95;;;32.50;;
56429;SDS011;42332;52.136;20.666;2023-06-22T02:10:45;55.75;;;33.30;;
56429;SDS011;42332;52.136;20.666;2023-06-22T02:13:12;56.45;;;34.33;;
56429;SDS011;42332;52.136;20.666;2023-06-22T02:15:38;55.10;;;32.95;;
56429;SDS011;42332;52.136;20.666;2023-06-22T02:18:03;62.00;;;36.35;;
56429;SDS011;42332;52.136;20.666;2023-06-22T02:20:29;54.50;;;32.28;;
56429;SDS011;42332;52.136;20.666;2023-06-22T02:22:54;62.45;;;36.28;;
56429;SDS011;42332;52.136;20.666;2023-06-22T02:25:19;60.72;;;36.80;;
56429;SDS011;42332;52.136;20.666;2023-06-22T02:27:46;64.18;;;37.35;;
56429;SDS011;42332;52.136;20.666;2023-06-22T02:30:11;59.03;;;35.05;;
56429;SDS011;42332;52.136;20.666;2023-06-22T02:32:37;59.83;;;33.35;;
56429;SDS011;42332;52.136;20.666;2023-06-22T02:35:06;63.85;;;34.78;;
56429;SDS011;42332;52.136;20.666;2023-06-22T02:37:32;61.15;;;36.75;;
56429;SDS011;42332;52.136;20.666;2023-06-22T02:39:57;63.60;;;37.40;;
56429;SDS011;42332;52.136;20.666;2023-06-22T02:42:23;63.13;;;36.33;;
56429;SDS011;42332;52.136;20.666;2023-06-22T02:44:48;58.53;;;33.33;;
56429;SDS011;42332;52.136;20.666;2023-06-22T02:47:13;64.55;;;36.53;;
56429;SDS011;42332;52.136;20.666;2023-06-22T02:49:39;64.13;;;36.15;;
56429;SDS011;42332;52.136;20.666;2023-06-22T02:52:04;58.30;;;34.83;;
56429;SDS011;42332;52.136;20.666;2023-06-22T02:54:29;58.45;;;34.13;;
56429;SDS011;42332;52.136;20.666;2023-06-22T02:56:55;55.88;;;36.47;;
56429;SDS011;42332;52.136;20.666;2023-06-22T02:59:20;66.07;;;35.85;;
56429;SDS011;42332;52.136;20.666;2023-06-22T03:01:49;65.97;;;36.30;;
56429;SDS011;42332;52.136;20.666;2023-06-22T03:04:15;60.50;;;35.08;;
56429;SDS011;42332;52.136;20.666;2023-06-22T03:06:40;64.95;;;33.85;;
56429;SDS011;42332;52.136;20.666;2023-06-22T03:09:05;57.85;;;33.13;;
56429;SDS011;42332;52.136;20.666;2023-06-22T03:11:32;55.53;;;33.88;;
56429;SDS011;42332;52.136;20.666;2023-06-22T03:13:58;61.85;;;34.42;;
56429;SDS011;42332;52.136;20.666;2023-06-22T03:16:23;55.45;;;32.63;;
56429;SDS011;42332;52.136;20.666;2023-06-22T03:18:49;56.55;;;30.33;;
56429;SDS011;42332;52.136;20.666;2023-06-22T03:21:14;52.05;;;32.28;;
56429;SDS011;42332;52.136;20.666;2023-06-22T03:23:40;50.88;;;31.65;;
56429;SDS011;42332;52.136;20.666;2023-06-22T03:26:06;48.60;;;30.25;;
56429;SDS011;42332;52.136;20.666;2023-06-22T03:28:31;57.17;;;30.88;;
56429;SDS011;42332;52.136;20.666;2023-06-22T03:30:57;52.25;;;31.55;;
56429;SDS011;42332;52.136;20.666;2023-06-22T03:33:23;47.05;;;29.60;;
56429;SDS011;42332;52.136;20.666;2023-06-22T03:35:48;48.92;;;30.60;;
56429;SDS011;42332;52.136;20.666;2023-06-22T03:38:14;49.92;;;31.13;;
56429;SDS011;42332;52.136;20.666;2023-06-22T03:40:40;43.90;;;25.10;;
56429;SDS011;42332;52.136;20.666;2023-06-22T03:43:05;48.47;;;27.98;;
56429;SDS011;42332;52.136;20.666;2023-06-22T03:45:30;55.28;;;29.85;;
56429;SDS011;42332;52.136;20.666;2023-06-22T03:47:56;50.60;;;28.73;;
56429;SDS011;42332;52.136;20.666;2023-06-22T03:50:21;46.60;;;28.02;;
56429;SDS011;42332;52.136;20.666;2023-06-22T03:52:47;50.08;;;29.35;;
56429;SDS011;42332;52.136;20.666;2023-06-22T03:55:12;44.95;;;27.50;;
56429;SDS011;42332;52.136;20.666;2023-06-22T03:57:37;53.95;;;27.02;;
56429;SDS011;42332;52.136;20.666;2023-06-22T04:00:03;40.70;;;26.95;;
56429;SDS011;42332;52.136;20.666;2023-06-22T04:02:32;49.40;;;27.35;;
56429;SDS011;42332;52.136;20.666;2023-06-22T04:04:58;46.90;;;27.00;;
56429;SDS011;42332;52.136;20.666;2023-06-22T04:07:23;41.58;;;24.73;;
56429;SDS011;42332;52.136;20.666;2023-06-22T04:09:48;37.67;;;24.88;;
56429;SDS011;42332;52.136;20.666;2023-06-22T04:12:14;41.72;;;18.70;;
56429;SDS011;42332;52.136;20.666;2023-06-22T04:14:39;40.08;;;22.88;;
56429;SDS011;42332;52.136;20.666;2023-06-22T04:17:05;36.58;;;23.17;;
56429;SDS011;42332;52.136;20.666;2023-06-22T04:19:30;40.60;;;23.48;;
56429;SDS011;42332;52.136;20.666;2023-06-22T04:21:55;37.03;;;21.92;;
56429;SDS011;42332;52.136;20.666;2023-06-22T04:24:21;34.65;;;22.23;;
56429;SDS011;42332;52.136;20.666;2023-06-22T04:26:46;34.30;;;21.52;;
56429;SDS011;42332;52.136;20.666;2023-06-22T04:29:12;37.80;;;21.10;;
56429;SDS011;42332;52.136;20.666;2023-06-22T04:31:38;35.20;;;21.35;;
56429;SDS011;42332;52.136;20.666;2023-06-22T04:34:04;33.63;;;19.92;;
56429;SDS011;42332;52.136;20.666;2023-06-22T04:36:36;32.38;;;20.80;;
56429;SDS011;42332;52.136;20.666;2023-06-22T04:39:04;32.90;;;19.10;;
56429;SDS011;42332;52.136;20.666;2023-06-22T04:41:32;30.58;;;18.73;;
56429;SDS011;42332;52.136;20.666;2023-06-22T04:44:06;34.25;;;20.02;;
56429;SDS011;42332;52.136;20.666;2023-06-22T04:46:32;38.17;;;19.63;;
56429;SDS011;42332;52.136;20.666;2023-06-22T04:48:59;29.75;;;19.83;;
56429;SDS011;42332;52.136;20.666;2023-06-22T04:51:24;35.50;;;19.67;;
56429;SDS011;42332;52.136;20.666;2023-06-22T04:53:54;30.73;;;17.88;;
56429;SDS011;42332;52.136;20.666;2023-06-22T04:56:25;28.52;;;18.30;;
56429;SDS011;42332;52.136;20.666;2023-06-22T04:58:53;28.90;;;17.15;;
56429;SDS011;42332;52.136;20.666;2023-06-22T05:01:21;36.22;;;18.75;;
56429;SDS011;42332;52.136;20.666;2023-06-22T05:03:47;34.05;;;17.95;;
56429;SDS011;42332;52.136;20.666;2023-06-22T05:06:13;28.88;;;16.65;;
56429;SDS011;42332;52.136;20.666;2023-06-22T05:08:39;29.35;;;18.38;;
56429;SDS011;42332;52.136;20.666;2023-06-22T05:11:04;28.65;;;16.38;;
56429;SDS011;42332;52.136;20.666;2023-06-22T05:13:30;24.17;;;14.65;;
56429;SDS011;42332;52.136;20.666;2023-06-22T05:15:55;28.63;;;17.45;;
56429;SDS011;42332;52.136;20.666;2023-06-22T05:18:26;29.58;;;16.00;;
56429;SDS011;42332;52.136;20.666;2023-06-22T05:20:52;26.80;;;15.65;;
56429;SDS011;42332;52.136;20.666;2023-06-22T05:23:18;24.02;;;14.73;;
56429;SDS011;42332;52.136;20.666;2023-06-22T05:25:44;25.50;;;15.10;;
56429;SDS011;42332;52.136;20.666;2023-06-22T05:28:09;24.55;;;15.50;;
56429;SDS011;42332;52.136;20.666;2023-06-22T05:30:36;26.73;;;16.33;;
56429;SDS011;42332;52.136;20.666;2023-06-22T05:33:01;28.35;;;14.68;;
56429;SDS011;42332;52.136;20.666;2023-06-22T05:35:27;31.40;;;15.75;;
56429;SDS011;42332;52.136;20.666;2023-06-22T05:37:52;27.38;;;15.75;;
56429;SDS011;42332;52.136;20.666;2023-06-22T05:40:17;22.58;;;14.82;;
56429;SDS011;42332;52.136;20.666;2023-06-22T05:42:43;25.05;;;14.50;;
56429;SDS011;42332;52.136;20.666;2023-06-22T05:45:08;24.77;;;13.82;;
56429;SDS011;42332;52.136;20.666;2023-06-22T05:47:34;23.23;;;15.18;;
56429;SDS011;42332;52.136;20.666;2023-06-22T05:49:59;21.00;;;13.93;;
56429;SDS011;42332;52.136;20.666;2023-06-22T05:52:25;23.08;;;13.57;;
56429;SDS011;42332;52.136;20.666;2023-06-22T05:54:50;25.35;;;12.98;;
56429;SDS011;42332;52.136;20.666;2023-06-22T05:57:15;30.55;;;13.20;;
56429;SDS011;42332;52.136;20.666;2023-06-22T05:59:41;22.20;;;13.63;;
56429;SDS011;42332;52.136;20.666;2023-06-22T06:02:06;23.50;;;14.48;;
56429;SDS011;42332;52.136;20.666;2023-06-22T06:04:31;20.20;;;12.50;;
56429;SDS011;42332;52.136;20.666;2023-06-22T06:06:57;21.33;;;13.15;;
56429;SDS011;42332;52.136;20.666;2023-06-22T06:09:22;24.98;;;14.10;;
56429;SDS011;42332;52.136;20.666;2023-06-22T06:11:47;24.95;;;12.85;;
56429;SDS011;42332;52.136;20.666;2023-06-22T06:14:13;21.80;;;12.48;;
56429;SDS011;42332;52.136;20.666;2023-06-22T06:16:38;22.70;;;10.95;;
56429;SDS011;42332;52.136;20.666;2023-06-22T06:19:03;19.08;;;10.93;;
56429;SDS011;42332;52.136;20.666;2023-06-22T06:21:29;18.52;;;10.57;;
56429;SDS011;42332;52.136;20.666;2023-06-22T06:23:54;16.20;;;11.18;;
56429;SDS011;42332;52.136;20.666;2023-06-22T06:26:20;19.20;;;10.82;;
56429;SDS011;42332;52.136;20.666;2023-06-22T06:28:53;15.23;;;10.70;;
56429;SDS011;42332;52.136;20.666;2023-06-22T06:31:19;20.38;;;9.05;;
56429;SDS011;42332;52.136;20.666;2023-06-22T06:33:45;16.10;;;9.73;;
56429;SDS011;42332;52.136;20.666;2023-06-22T06:36:11;17.50;;;9.88;;
56429;SDS011;42332;52.136;20.666;2023-06-22T06:38:36;20.10;;;9.38;;
56429;SDS011;42332;52.136;20.666;2023-06-22T06:41:01;15.85;;;8.48;;
56429;SDS011;42332;52.136;20.666;2023-06-22T06:43:27;15.27;;;7.78;;
56429;SDS011;42332;52.136;20.666;2023-06-22T06:45:52;15.60;;;9.07;;
56429;SDS011;42332;52.136;20.666;2023-06-22T06:48:17;19.10;;;8.65;;
56429;SDS011;42332;52.136;20.666;2023-06-22T06:50:43;14.18;;;6.75;;
56429;SDS011;42332;52.136;20.666;2023-06-22T06:53:09;13.38;;;7.03;;
56429;SDS011;42332;52.136;20.666;2023-06-22T06:55:34;17.20;;;8.50;;
56429;SDS011;42332;52.136;20.666;2023-06-22T06:58:00;17.58;;;9.05;;
56429;SDS011;42332;52.136;20.666;2023-06-22T07:00:26;15.98;;;8.27;;
56429;SDS011;42332;52.136;20.666;2023-06-22T07:02:52;18.92;;;9.63;;
56429;SDS011;42332;52.136;20.666;2023-06-22T07:05:18;13.57;;;7.05;;
56429;SDS011;42332;52.136;20.666;2023-06-22T07:07:43;19.63;;;8.52;;
56429;SDS011;42332;52.136;20.666;2023-06-22T07:10:08;20.10;;;7.63;;
56429;SDS011;42332;52.136;20.666;2023-06-22T07:12:34;16.10;;;8.07;;
56429;SDS011;42332;52.136;20.666;2023-06-22T07:15:03;10.60;;;5.93;;
56429;SDS011;42332;52.136;20.666;2023-06-22T07:17:37;15.18;;;7.85;;
56429;SDS011;42332;52.136;20.666;2023-06-22T07:20:03;18.90;;;7.15;;
56429;SDS011;42332;52.136;20.666;2023-06-22T07:22:33;15.27;;;7.57;;
56429;SDS011;42332;52.136;20.666;2023-06-22T07:24:58;14.77;;;6.82;;
56429;SDS011;42332;52.136;20.666;2023-06-22T07:27:24;12.82;;;6.47;;
56429;SDS011;42332;52.136;20.666;2023-06-22T07:29:49;9.82;;;5.15;;
56429;SDS011;42332;52.136;20.666;2023-06-22T07:32:15;11.45;;;4.45;;
56429;SDS011;42332;52.136;20.666;2023-06-22T07:34:40;15.80;;;7.00;;
56429;SDS011;42332;52.136;20.666;2023-06-22T07:37:06;12.60;;;6.13;;
56429;SDS011;42332;52.136;20.666;2023-06-22T07:39:31;10.50;;;5.15;;
56429;SDS011;42332;52.136;20.666;2023-06-22T07:41:57;12.98;;;5.00;;
56429;SDS011;42332;52.136;20.666;2023-06-22T07:44:22;10.15;;;5.22;;
56429;SDS011;42332;52.136;20.666;2023-06-22T07:46:47;12.68;;;4.70;;
56429;SDS011;42332;52.136;20.666;2023-06-22T07:49:13;10.60;;;5.35;;
56429;SDS011;42332;52.136;20.666;2023-06-22T07:51:38;12.13;;;4.53;;
56429;SDS011;42332;52.136;20.666;2023-06-22T07:54:04;9.50;;;4.13;;
56429;SDS011;42332;52.136;20.666;2023-06-22T07:56:29;8.43;;;4.30;;
56429;SDS011;42332;52.136;20.666;2023-06-22T07:58:54;7.65;;;4.57;;
56429;SDS011;42332;52.136;20.666;2023-06-22T08:01:22;12.80;;;3.58;;
56429;SDS011;42332;52.136;20.666;2023-06-22T08:03:48;9.18;;;3.30;;
56429;SDS011;42332;52.136;20.666;2023-06-22T08:06:14;11.15;;;3.28;;
56429;SDS011;42332;52.136;20.666;2023-06-22T08:08:39;8.77;;;3.60;;
56429;SDS011;42332;52.136;20.666;2023-06-22T08:11:05;8.20;;;3.20;;
56429;SDS011;42332;52.136;20.666;2023-06-22T08:13:30;8.60;;;3.53;;
56429;SDS011;42332;52.136;20.666;2023-06-22T08:15:56;7.57;;;3.55;;
56429;SDS011;42332;52.136;20.666;2023-06-22T08:18:21;7.45;;;3.33;;
56429;SDS011;42332;52.136;20.666;2023-06-22T08:20:46;6.55;;;3.10;;
56429;SDS011;42332;52.136;20.666;2023-06-22T08:23:12;11.63;;;3.72;;
56429;SDS011;42332;52.136;20.666;2023-06-22T08:25:37;6.50;;;3.25;;
56429;SDS011;42332;52.136;20.666;2023-06-22T08:28:03;9.23;;;3.10;;
56429;SDS011;42332;52.136;20.666;2023-06-22T08:30:29;5.80;;;2.35;;
56429;SDS011;42332;52.136;20.666;2023-06-22T08:32:54;6.05;;;2.90;;
56429;SDS011;42332;52.136;20.666;2023-06-22T08:35:20;4.40;;;2.47;;
56429;SDS011;42332;52.136;20.666;2023-06-22T08:37:47;8.07;;;2.80;;
56429;SDS011;42332;52.136;20.666;2023-06-22T08:40:16;17.45;;;2.92;;
56429;SDS011;42332;52.136;20.666;2023-06-22T08:42:42;7.60;;;2.67;;
56429;SDS011;42332;52.136;20.666;2023-06-22T08:45:07;5.55;;;2.70;;
56429;SDS011;42332;52.136;20.666;2023-06-22T08:47:33;7.85;;;3.75;;
56429;SDS011;42332;52.136;20.666;2023-06-22T08:49:59;9.55;;;3.88;;
56429;SDS011;42332;52.136;20.666;2023-06-22T08:52:24;9.63;;;3.90;;
56429;SDS011;42332;52.136;20.666;2023-06-22T08:54:50;6.88;;;3.70;;
56429;SDS011;42332;52.136;20.666;2023-06-22T08:57:16;9.15;;;3.30;;
56429;SDS011;42332;52.136;20.666;2023-06-22T08:59:42;10.48;;;3.85;;
56429;SDS011;42332;52.136;20.666;2023-06-22T09:02:07;9.25;;;3.65;;
56429;SDS011;42332;52.136;20.666;2023-06-22T09:04:33;8.95;;;3.53;;
56429;SDS011;42332;52.136;20.666;2023-06-22T09:07:00;9.35;;;2.92;;
56429;SDS011;42332;52.136;20.666;2023-06-22T09:09:28;7.75;;;2.67;;
56429;SDS011;42332;52.136;20.666;2023-06-22T09:11:53;5.13;;;2.60;;
56429;SDS011;42332;52.136;20.666;2023-06-22T09:14:19;4.57;;;2.22;;
56429;SDS011;42332;52.136;20.666;2023-06-22T09:16:44;6.60;;;2.63;;
56429;SDS011;42332;52.136;20.666;2023-06-22T09:19:09;8.73;;;3.30;;
56429;SDS011;42332;52.136;20.666;2023-06-22T09:21:35;8.27;;;2.92;;
56429;SDS011;42332;52.136;20.666;2023-06-22T09:24:01;7.22;;;2.80;;
56429;SDS011;42332;52.136;20.666;2023-06-22T09:26:27;7.47;;;2.80;;
56429;SDS011;42332;52.136;20.666;2023-06-22T09:28:52;3.88;;;1.67;;
56429;SDS011;42332;52.136;20.666;2023-06-22T09:31:18;6.30;;;2.53;;
56429;SDS011;42332;52.136;20.666;2023-06-22T09:33:50;6.65;;;2.83;;
56429;SDS011;42332;52.136;20.666;2023-06-22T09:36:16;6.18;;;2.97;;
56429;SDS011;42332;52.136;20.666;2023-06-22T09:38:42;4.68;;;2.40;;
56429;SDS011;42332;52.136;20.666;2023-06-22T09:41:07;11.80;;;2.92;;
56429;SDS011;42332;52.136;20.666;2023-06-22T09:43:32;8.88;;;2.83;;
56429;SDS011;42332;52.136;20.666;2023-06-22T09:46:01;5.25;;;2.67;;
56429;SDS011;42332;52.136;20.666;2023-06-22T09:48:27;7.40;;;2.75;;
56429;SDS011;42332;52.136;20.666;2023-06-22T09:50:53;15.30;;;3.25;;
56429;SDS011;42332;52.136;20.666;2023-06-22T09:53:18;6.47;;;1.90;;
56429;SDS011;42332;52.136;20.666;2023-06-22T09:55:44;9.00;;;2.72;;
56429;SDS011;42332;52.136;20.666;2023-06-22T09:58:09;5.50;;;2.10;;
56429;SDS011;42332;52.136;20.666;2023-06-22T10:00:35;6.78;;;3.10;;
56429;SDS011;42332;52.136;20.666;2023-06-22T10:03:00;7.88;;;3.38;;
56429;SDS011;42332;52.136;20.666;2023-06-22T10:05:25;4.88;;;2.35;;
56429;SDS011;42332;52.136;20.666;2023-06-22T10:07:51;8.52;;;2.70;;
56429;SDS011;42332;52.136;20.666;2023-06-22T10:10:16;5.90;;;2.47;;
56429;SDS011;42332;52.136;20.666;2023-06-22T10:12:42;7.85;;;3.10;;
56429;SDS011;42332;52.136;20.666;2023-06-22T10:15:10;8.50;;;3.88;;
56429;SDS011;42332;52.136;20.666;2023-06-22T10:17:36;7.53;;;2.95;;
56429;SDS011;42332;52.136;20.666;2023-06-22T10:20:01;12.77;;;3.38;;
56429;SDS011;42332;52.136;20.666;2023-06-22T10:22:31;7.93;;;3.00;;
56429;SDS011;42332;52.136;20.666;2023-06-22T10:24:57;11.20;;;3.13;;
56429;SDS011;42332;52.136;20.666;2023-06-22T10:27:22;7.93;;;3.50;;
56429;SDS011;42332;52.136;20.666;2023-06-22T10:29:47;6.53;;;2.92;;
56429;SDS011;42332;52.136;20.666;2023-06-22T10:32:13;10.38;;;3.53;;
56429;SDS011;42332;52.136;20.666;2023-06-22T10:34:38;5.53;;;2.78;;
56429;SDS011;42332;52.136;20.666;2023-06-22T10:37:03;10.57;;;3.30;;
56429;SDS011;42332;52.136;20.666;2023-06-22T10:39:29;6.20;;;3.28;;
56429;SDS011;42332;52.136;20.666;2023-06-22T10:41:54;5.13;;;2.20;;
56429;SDS011;42332;52.136;20.666;2023-06-22T10:44:21;5.32;;;2.88;;
56429;SDS011;42332;52.136;20.666;2023-06-22T10:46:46;9.93;;;2.75;;
56429;SDS011;42332;52.136;20.666;2023-06-22T10:49:11;5.00;;;2.33;;
56429;SDS011;42332;52.136;20.666;2023-06-22T10:51:37;9.23;;;3.13;;
56429;SDS011;42332;52.136;20.666;2023-06-22T10:54:02;7.72;;;3.08;;
56429;SDS011;42332;52.136;20.666;2023-06-22T10:56:29;7.53;;;2.70;;
56429;SDS011;42332;52.136;20.666;2023-06-22T10:58:54;4.32;;;2.58;;
56429;SDS011;42332;52.136;20.666;2023-06-22T11:01:20;5.97;;;3.05;;
56429;SDS011;42332;52.136;20.666;2023-06-22T11:03:45;6.30;;;2.95;;
56429;SDS011;42332;52.136;20.666;2023-06-22T11:06:10;8.63;;;2.97;;
56429;SDS011;42332;52.136;20.666;2023-06-22T11:08:36;9.60;;;2.88;;
56429;SDS011;42332;52.136;20.666;2023-06-22T11:11:01;7.63;;;3.08;;
56429;SDS011;42332;52.136;20.666;2023-06-22T11:13:26;13.52;;;2.78;;
56429;SDS011;42332;52.136;20.666;2023-06-22T11:15:52;6.07;;;2.20;;
56429;SDS011;42332;52.136;20.666;2023-06-22T11:18:17;6.20;;;2.83;;
56429;SDS011;42332;52.136;20.666;2023-06-22T11:20:42;6.07;;;2.80;;
56429;SDS011;42332;52.136;20.666;2023-06-22T11:23:08;8.40;;;2.75;;
56429;SDS011;42332;52.136;20.666;2023-06-22T11:25:34;8.68;;;3.03;;
56429;SDS011;42332;52.136;20.666;2023-06-22T11:28:03;7.30;;;3.40;;
56429;SDS011;42332;52.136;20.666;2023-06-22T11:30:29;7.35;;;3.10;;
56429;SDS011;42332;52.136;20.666;2023-06-22T11:32:56;9.52;;;3.45;;
56429;SDS011;42332;52.136;20.666;2023-06-22T11:35:22;8.38;;;3.65;;
56429;SDS011;42332;52.136;20.666;2023-06-22T11:37:47;5.47;;;2.42;;
56429;SDS011;42332;52.136;20.666;2023-06-22T11:40:13;8.07;;;3.38;;
56429;SDS011;42332;52.136;20.666;2023-06-22T11:42:38;5.90;;;3.08;;
56429;SDS011;42332;52.136;20.666;2023-06-22T11:45:04;7.20;;;3.75;;
56429;SDS011;42332;52.136;20.666;2023-06-22T11:47:30;9.55;;;3.80;;
56429;SDS011;42332;52.136;20.666;2023-06-22T11:49:55;10.10;;;3.75;;
56429;SDS011;42332;52.136;20.666;2023-06-22T11:52:21;5.68;;;2.83;;
56429;SDS011;42332;52.136;20.666;2023-06-22T11:54:46;6.18;;;3.33;;
56429;SDS011;42332;52.136;20.666;2023-06-22T11:57:11;9.85;;;3.13;;
56429;SDS011;42332;52.136;20.666;2023-06-22T11:59:37;11.52;;;3.30;;
56429;SDS011;42332;52.136;20.666;2023-06-22T12:02:02;11.25;;;3.58;;
56429;SDS011;42332;52.136;20.666;2023-06-22T12:04:29;7.05;;;3.58;;
56429;SDS011;42332;52.136;20.666;2023-06-22T12:06:54;9.27;;;3.33;;
56429;SDS011;42332;52.136;20.666;2023-06-22T12:09:20;11.55;;;4.03;;
56429;SDS011;42332;52.136;20.666;2023-06-22T12:11:45;8.70;;;3.10;;
56429;SDS011;42332;52.136;20.666;2023-06-22T12:14:10;7.25;;;3.05;;
56429;SDS011;42332;52.136;20.666;2023-06-22T12:16:35;6.22;;;3.10;;
56429;SDS011;42332;52.136;20.666;2023-06-22T12:19:01;5.65;;;3.22;;
56429;SDS011;42332;52.136;20.666;2023-06-22T12:21:26;8.60;;;3.78;;
56429;SDS011;42332;52.136;20.666;2023-06-22T12:23:52;8.70;;;3.80;;
56429;SDS011;42332;52.136;20.666;2023-06-22T12:26:17;7.57;;;3.40;;
56429;SDS011;42332;52.136;20.666;2023-06-22T12:28:43;5.55;;;2.75;;
56429;SDS011;42332;52.136;20.666;2023-06-22T12:31:08;8.35;;;2.53;;
56429;SDS011;42332;52.136;20.666;2023-06-22T12:33:33;7.38;;;2.60;;
56429;SDS011;42332;52.136;20.666;2023-06-22T12:35:59;8.60;;;3.40;;
56429;SDS011;42332;52.136;20.666;2023-06-22T12:38:24;6.65;;;3.25;;
56429;SDS011;42332;52.136;20.666;2023-06-22T12:40:51;6.38;;;2.90;;
56429;SDS011;42332;52.136;20.666;2023-06-22T12:43:16;7.25;;;2.53;;
56429;SDS011;42332;52.136;20.666;2023-06-22T12:45:41;7.75;;;2.70;;
56429;SDS011;42332;52.136;20.666;2023-06-22T12:48:07;7.28;;;2.60;;
56429;SDS011;42332;52.136;20.666;2023-06-22T12:50:33;10.25;;;2.78;;
56429;SDS011;42332;52.136;20.666;2023-06-22T12:52:59;5.28;;;2.47;;
56429;SDS011;42332;52.136;20.666;2023-06-22T12:55:25;5.57;;;2.97;;
56429;SDS011;42332;52.136;20.666;2023-06-22T12:57:50;6.97;;;3.05;;
56429;SDS011;42332;52.136;20.666;2023-06-22T13:00:15;8.43;;;2.95;;
56429;SDS011;42332;52.136;20.666;2023-06-22T13:02:41;5.55;;;2.88;;
56429;SDS011;42332;52.136;20.666;2023-06-22T13:05:07;12.57;;;3.33;;
56429;SDS011;42332;52.136;20.666;2023-06-22T13:07:33;6.30;;;2.78;;
56429;SDS011;42332;52.136;20.666;2023-06-22T13:09:58;6.57;;;2.72;;
56429;SDS011;42332;52.136;20.666;2023-06-22T13:12:24;5.60;;;2.75;;
56429;SDS011;42332;52.136;20.666;2023-06-22T13:14:49;7.63;;;3.05;;
56429;SDS011;42332;52.136;20.666;2023-06-22T13:17:14;6.13;;;2.90;;
56429;SDS011;42332;52.136;20.666;2023-06-22T13:19:40;8.98;;;3.65;;
56429;SDS011;42332;52.136;20.666;2023-06-22T13:22:09;7.63;;;2.88;;
56429;SDS011;42332;52.136;20.666;2023-06-22T13:25:04;6.50;;;3.00;;
56429;SDS011;42332;52.136;20.666;2023-06-22T13:27:31;6.65;;;3.28;;
56429;SDS011;42332;52.136;20.666;2023-06-22T13:29:56;8.50;;;3.00;;
56429;SDS011;42332;52.136;20.666;2023-06-22T13:32:21;10.27;;;3.55;;
56429;SDS011;42332;52.136;20.666;2023-06-22T13:34:47;5.65;;;3.20;;
56429;SDS011;42332;52.136;20.666;2023-06-22T13:37:12;8.40;;;3.08;;
56429;SDS011;42332;52.136;20.666;2023-06-22T13:39:37;6.03;;;3.08;;
56429;SDS011;42332;52.136;20.666;2023-06-22T13:42:03;6.88;;;3.08;;
56429;SDS011;42332;52.136;20.666;2023-06-22T13:44:29;15.68;;;3.25;;
56429;SDS011;42332;52.136;20.666;2023-06-22T13:46:55;7.90;;;3.60;;
56429;SDS011;42332;52.136;20.666;2023-06-22T13:49:20;10.43;;;3.65;;
56429;SDS011;42332;52.136;20.666;2023-06-22T13:51:46;10.90;;;3.90;;
56429;SDS011;42332;52.136;20.666;2023-06-22T13:54:13;6.22;;;3.58;;
56429;SDS011;42332;52.136;20.666;2023-06-22T13:56:38;7.90;;;3.08;;
56429;SDS011;42332;52.136;20.666;2023-06-22T13:59:04;12.57;;;4.53;;
56429;SDS011;42332;52.136;20.666;2023-06-22T14:01:29;6.85;;;2.85;;
56429;SDS011;42332;52.136;20.666;2023-06-22T14:03:54;13.75;;;3.33;;
56429;SDS011;42332;52.136;20.666;2023-06-22T14:06:19;7.03;;;3.30;;
56429;SDS011;42332;52.136;20.666;2023-06-22T14:08:45;5.63;;;2.92;;
56429;SDS011;42332;52.136;20.666;2023-06-22T14:11:10;6.93;;;3.22;;
56429;SDS011;42332;52.136;20.666;2023-06-22T14:13:35;7.63;;;3.55;;
56429;SDS011;42332;52.136;20.666;2023-06-22T14:16:01;6.82;;;3.53;;
56429;SDS011;42332;52.136;20.666;2023-06-22T14:18:27;5.97;;;3.53;;